الصفحة الرئيسية
METAR-TAF:

METAR-TAF

مطار :

مطار قابس مطماطة الدولي

ڨابس, تونس

دائرة عرض: 33-53N, خط طول: 010-06E, ارتفاع: 4 متر

مراقبة الطقس الحالي

تاريخ ووقت الإصدار 2ساعات و 12 دقيقة قبل الساعة 16:00UTC
ريح 14 عقدة من الشمال/الشمال الغربي
درجة الحرارة 24°درجة مئوية
الرطوبة 38%
ضغط 1008 hPa
الرؤية: 5000 متر
غيوم مفككة على ارتفاع 2000 قدم

METAR: DTTG 161600Z 34014KT 5000 BKN020 24/09 Q1008 NOSIG

زمن: 19:12 (18:12 UTC)

توقعات

تاريخ ووقت الإصدار 3ساعات و 12 دقيقة قبل الساعة 15:00UTC
التوقعات صالحة من16 الساعة 16 UTC إلى 17 الساعة 01 UTC
ريح 12 عقدة من الشمال/الشمال الغربي
الرؤية: 7000 متر
غيوم مفككة على ارتفاع 2000 قدم
نظرية الاحتمالات 40% :
مؤقت
من 16 الساعة 18 UTC إلى 17 الساعة 01 UTC
الرؤية: 5000 متر
غيوم قليلة على ارتفاع 2300 قدم, مزنة ركامية.
غيوم متفرقة على ارتفاع 2000 قدم, مزن ركامية عمودية.
عاصفة رعدية, مطر,

TAF: DTTG 161500Z 1616/1701 33012KT 7000 BKN020 PROB40 TEMPO 1618/1701 5000 TSRA FEW023CB SCT020TCU

أرصاد الطقس والتوقعات من أكثر من 4000 مطار (تقارير الطقس للمطار METAR والتنبؤ بالطقس بالمطارTAF).

المحطات المتاحة هي النقط الصفراء والحمراء على الخريطة.

حرك المؤشر فوق النقطة لمعرفة اسم المحطة.

ثم انقر لمعرفة أرصاد وتوقعات الطقس.

لتغيير الخارطة: اضغط على الأزرار الخضراء مع رمز الصليب الأسود للتكبير. على الزر الأخضر مع شرطة للتصغير، أو على الأسهم الخضراء للخرائط المجاورة.


METAR-TAF: